sensor_id;sensor_type;location;lat;lon;timestamp;temperature;humidity
28608;DHT22;15802;45.654;13.804;2023-04-24T00:01:18;16.30;99.90
28608;DHT22;15802;45.654;13.804;2023-04-24T00:03:44;16.30;99.90
28608;DHT22;15802;45.654;13.804;2023-04-24T00:06:10;16.30;99.90
28608;DHT22;15802;45.654;13.804;2023-04-24T00:08:36;16.40;99.90
28608;DHT22;15802;45.654;13.804;2023-04-24T00:11:02;16.40;99.90
28608;DHT22;15802;45.654;13.804;2023-04-24T00:13:30;16.40;99.90
28608;DHT22;15802;45.654;13.804;2023-04-24T00:15:56;16.40;99.90
28608;DHT22;15802;45.654;13.804;2023-04-24T00:18:21;16.50;99.90
28608;DHT22;15802;45.654;13.804;2023-04-24T00:20:49;16.50;99.90
28608;DHT22;15802;45.654;13.804;2023-04-24T00:23:15;16.50;99.90
28608;DHT22;15802;45.654;13.804;2023-04-24T00:25:43;16.50;99.90
28608;DHT22;15802;45.654;13.804;2023-04-24T00:28:08;16.50;99.90
28608;DHT22;15802;45.654;13.804;2023-04-24T00:30:34;16.50;99.90
28608;DHT22;15802;45.654;13.804;2023-04-24T00:33:00;16.50;99.90
28608;DHT22;15802;45.654;13.804;2023-04-24T00:35:26;16.50;99.90
28608;DHT22;15802;45.654;13.804;2023-04-24T00:38:00;16.50;99.90
28608;DHT22;15802;45.654;13.804;2023-04-24T00:40:26;16.40;99.90
28608;DHT22;15802;45.654;13.804;2023-04-24T00:42:52;16.40;99.90
28608;DHT22;15802;45.654;13.804;2023-04-24T00:45:18;16.30;99.90
28608;DHT22;15802;45.654;13.804;2023-04-24T00:47:45;16.30;99.90
28608;DHT22;15802;45.654;13.804;2023-04-24T00:50:10;16.30;99.90
28608;DHT22;15802;45.654;13.804;2023-04-24T00:52:41;16.20;99.90
28608;DHT22;15802;45.654;13.804;2023-04-24T00:55:09;16.30;99.90
28608;DHT22;15802;45.654;13.804;2023-04-24T00:57:36;16.20;99.90
28608;DHT22;15802;45.654;13.804;2023-04-24T01:00:02;16.20;99.90
28608;DHT22;15802;45.654;13.804;2023-04-24T01:02:28;16.10;99.90
28608;DHT22;15802;45.654;13.804;2023-04-24T01:04:57;16.10;99.90
28608;DHT22;15802;45.654;13.804;2023-04-24T01:07:23;16.20;99.90
28608;DHT22;15802;45.654;13.804;2023-04-24T01:09:52;16.20;99.90
28608;DHT22;15802;45.654;13.804;2023-04-24T01:12:21;16.10;99.90
28608;DHT22;15802;45.654;13.804;2023-04-24T01:14:47;16.20;99.90
28608;DHT22;15802;45.654;13.804;2023-04-24T01:17:12;16.20;99.90
28608;DHT22;15802;45.654;13.804;2023-04-24T01:19:38;16.20;99.90
28608;DHT22;15802;45.654;13.804;2023-04-24T01:22:12;16.20;99.90
28608;DHT22;15802;45.654;13.804;2023-04-24T01:25:09;16.20;99.90
28608;DHT22;15802;45.654;13.804;2023-04-24T01:27:34;16.20;99.90
28608;DHT22;15802;45.654;13.804;2023-04-24T01:30:00;16.30;99.90
28608;DHT22;15802;45.654;13.804;2023-04-24T01:32:26;16.30;99.90
28608;DHT22;15802;45.654;13.804;2023-04-24T01:34:52;16.30;99.90
28608;DHT22;15802;45.654;13.804;2023-04-24T01:37:17;16.30;99.90
28608;DHT22;15802;45.654;13.804;2023-04-24T01:39:43;16.30;99.90
28608;DHT22;15802;45.654;13.804;2023-04-24T01:42:12;16.30;99.90
28608;DHT22;15802;45.654;13.804;2023-04-24T01:44:38;16.30;99.90
28608;DHT22;15802;45.654;13.804;2023-04-24T01:47:05;16.20;99.90
28608;DHT22;15802;45.654;13.804;2023-04-24T01:49:32;16.20;99.90
28608;DHT22;15802;45.654;13.804;2023-04-24T01:51:58;16.30;99.90
28608;DHT22;15802;45.654;13.804;2023-04-24T01:54:23;16.30;99.90
28608;DHT22;15802;45.654;13.804;2023-04-24T01:56:49;16.30;99.90
28608;DHT22;15802;45.654;13.804;2023-04-24T01:59:15;16.20;99.90
28608;DHT22;15802;45.654;13.804;2023-04-24T02:01:42;16.30;99.90
28608;DHT22;15802;45.654;13.804;2023-04-24T02:04:08;16.30;99.90
28608;DHT22;15802;45.654;13.804;2023-04-24T02:06:34;16.30;99.90
28608;DHT22;15802;45.654;13.804;2023-04-24T02:09:00;16.20;99.90
28608;DHT22;15802;45.654;13.804;2023-04-24T02:11:26;16.30;99.90
28608;DHT22;15802;45.654;13.804;2023-04-24T02:13:51;16.30;99.90
28608;DHT22;15802;45.654;13.804;2023-04-24T02:16:17;16.30;99.90
28608;DHT22;15802;45.654;13.804;2023-04-24T02:18:43;16.30;99.90
28608;DHT22;15802;45.654;13.804;2023-04-24T02:21:12;16.20;99.90
28608;DHT22;15802;45.654;13.804;2023-04-24T02:23:38;16.10;99.90
28608;DHT22;15802;45.654;13.804;2023-04-24T02:26:03;16.00;99.90
28608;DHT22;15802;45.654;13.804;2023-04-24T02:28:29;15.90;99.90
28608;DHT22;15802;45.654;13.804;2023-04-24T02:30:55;15.80;99.90
28608;DHT22;15802;45.654;13.804;2023-04-24T02:33:21;15.80;99.90
28608;DHT22;15802;45.654;13.804;2023-04-24T02:35:47;15.80;99.90
28608;DHT22;15802;45.654;13.804;2023-04-24T02:38:13;15.70;99.90
28608;DHT22;15802;45.654;13.804;2023-04-24T02:40:38;15.70;99.90
28608;DHT22;15802;45.654;13.804;2023-04-24T02:43:04;15.70;99.90
28608;DHT22;15802;45.654;13.804;2023-04-24T02:45:30;15.70;99.90
28608;DHT22;15802;45.654;13.804;2023-04-24T02:47:56;15.70;99.90
28608;DHT22;15802;45.654;13.804;2023-04-24T02:50:21;15.70;99.90
28608;DHT22;15802;45.654;13.804;2023-04-24T02:52:47;15.70;99.90
28608;DHT22;15802;45.654;13.804;2023-04-24T02:55:13;15.60;99.90
28608;DHT22;15802;45.654;13.804;2023-04-24T02:57:39;15.60;99.90
28608;DHT22;15802;45.654;13.804;2023-04-24T03:00:04;15.60;99.90
28608;DHT22;15802;45.654;13.804;2023-04-24T03:02:32;15.60;99.90
28608;DHT22;15802;45.654;13.804;2023-04-24T03:04:58;15.50;99.90
28608;DHT22;15802;45.654;13.804;2023-04-24T03:07:25;15.60;99.90
28608;DHT22;15802;45.654;13.804;2023-04-24T03:09:50;15.60;99.90
28608;DHT22;15802;45.654;13.804;2023-04-24T03:12:16;15.60;99.90
28608;DHT22;15802;45.654;13.804;2023-04-24T03:14:43;15.60;99.90
28608;DHT22;15802;45.654;13.804;2023-04-24T03:17:09;15.60;99.90
28608;DHT22;15802;45.654;13.804;2023-04-24T03:19:35;15.60;99.90
28608;DHT22;15802;45.654;13.804;2023-04-24T03:22:02;15.70;99.90
28608;DHT22;15802;45.654;13.804;2023-04-24T03:24:27;15.70;99.90
28608;DHT22;15802;45.654;13.804;2023-04-24T03:26:53;15.70;99.90
28608;DHT22;15802;45.654;13.804;2023-04-24T03:29:19;15.70;99.90
28608;DHT22;15802;45.654;13.804;2023-04-24T03:31:48;15.70;99.90
28608;DHT22;15802;45.654;13.804;2023-04-24T03:34:14;15.70;99.90
28608;DHT22;15802;45.654;13.804;2023-04-24T03:36:39;15.70;99.90
28608;DHT22;15802;45.654;13.804;2023-04-24T03:39:05;15.60;99.90
28608;DHT22;15802;45.654;13.804;2023-04-24T03:41:31;15.60;99.90
28608;DHT22;15802;45.654;13.804;2023-04-24T03:43:57;15.50;99.90
28608;DHT22;15802;45.654;13.804;2023-04-24T03:46:22;15.50;99.90
28608;DHT22;15802;45.654;13.804;2023-04-24T03:48:48;15.50;99.90
28608;DHT22;15802;45.654;13.804;2023-04-24T03:51:14;15.50;99.90
28608;DHT22;15802;45.654;13.804;2023-04-24T03:53:40;15.50;99.90
28608;DHT22;15802;45.654;13.804;2023-04-24T03:56:06;15.60;99.90
28608;DHT22;15802;45.654;13.804;2023-04-24T03:58:32;15.60;99.90
28608;DHT22;15802;45.654;13.804;2023-04-24T04:00:57;15.60;99.90
28608;DHT22;15802;45.654;13.804;2023-04-24T04:03:24;15.60;99.90
28608;DHT22;15802;45.654;13.804;2023-04-24T04:05:50;15.50;99.90
28608;DHT22;15802;45.654;13.804;2023-04-24T04:08:16;15.50;99.90
28608;DHT22;15802;45.654;13.804;2023-04-24T04:10:42;15.60;99.90
28608;DHT22;15802;45.654;13.804;2023-04-24T04:13:07;15.60;99.90
28608;DHT22;15802;45.654;13.804;2023-04-24T04:15:33;15.60;99.90
28608;DHT22;15802;45.654;13.804;2023-04-24T04:17:59;15.60;99.90
28608;DHT22;15802;45.654;13.804;2023-04-24T04:20:25;15.60;99.90
28608;DHT22;15802;45.654;13.804;2023-04-24T04:22:51;15.60;99.90
28608;DHT22;15802;45.654;13.804;2023-04-24T04:25:16;15.60;99.90
28608;DHT22;15802;45.654;13.804;2023-04-24T04:27:45;15.60;99.90
28608;DHT22;15802;45.654;13.804;2023-04-24T04:30:11;15.60;99.90
28608;DHT22;15802;45.654;13.804;2023-04-24T04:32:37;15.60;99.90
28608;DHT22;15802;45.654;13.804;2023-04-24T04:35:03;15.60;99.90
28608;DHT22;15802;45.654;13.804;2023-04-24T04:37:30;15.60;99.90
28608;DHT22;15802;45.654;13.804;2023-04-24T04:39:57;15.60;99.90
28608;DHT22;15802;45.654;13.804;2023-04-24T04:42:24;15.70;99.90
28608;DHT22;15802;45.654;13.804;2023-04-24T04:44:50;15.70;99.90
28608;DHT22;15802;45.654;13.804;2023-04-24T04:47:16;15.70;99.90
28608;DHT22;15802;45.654;13.804;2023-04-24T04:49:42;15.70;99.90
28608;DHT22;15802;45.654;13.804;2023-04-24T04:52:08;15.70;99.90
28608;DHT22;15802;45.654;13.804;2023-04-24T04:54:34;15.70;99.90
28608;DHT22;15802;45.654;13.804;2023-04-24T04:57:00;15.70;99.90
28608;DHT22;15802;45.654;13.804;2023-04-24T04:59:26;15.70;99.90
28608;DHT22;15802;45.654;13.804;2023-04-24T05:01:52;15.60;99.90
28608;DHT22;15802;45.654;13.804;2023-04-24T05:04:18;15.60;99.90
28608;DHT22;15802;45.654;13.804;2023-04-24T05:06:44;15.60;99.90
28608;DHT22;15802;45.654;13.804;2023-04-24T05:09:10;15.60;99.90
28608;DHT22;15802;45.654;13.804;2023-04-24T05:11:36;15.60;99.90
28608;DHT22;15802;45.654;13.804;2023-04-24T05:14:01;15.60;99.90
28608;DHT22;15802;45.654;13.804;2023-04-24T05:16:27;15.60;99.90
28608;DHT22;15802;45.654;13.804;2023-04-24T05:18:53;15.60;99.90
28608;DHT22;15802;45.654;13.804;2023-04-24T05:21:18;15.70;99.90
28608;DHT22;15802;45.654;13.804;2023-04-24T05:23:44;15.60;99.90
28608;DHT22;15802;45.654;13.804;2023-04-24T05:26:10;15.70;99.90
28608;DHT22;15802;45.654;13.804;2023-04-24T05:28:38;15.70;99.90
28608;DHT22;15802;45.654;13.804;2023-04-24T05:31:04;15.60;99.90
28608;DHT22;15802;45.654;13.804;2023-04-24T05:33:30;15.60;99.90
28608;DHT22;15802;45.654;13.804;2023-04-24T05:35:56;15.50;99.90
28608;DHT22;15802;45.654;13.804;2023-04-24T05:38:21;15.50;99.90
28608;DHT22;15802;45.654;13.804;2023-04-24T05:40:47;15.40;99.90
28608;DHT22;15802;45.654;13.804;2023-04-24T05:43:13;15.40;99.90
28608;DHT22;15802;45.654;13.804;2023-04-24T05:45:38;15.40;99.90
28608;DHT22;15802;45.654;13.804;2023-04-24T05:48:04;15.40;99.90
28608;DHT22;15802;45.654;13.804;2023-04-24T05:50:31;15.50;99.90
28608;DHT22;15802;45.654;13.804;2023-04-24T05:52:56;15.40;99.90
28608;DHT22;15802;45.654;13.804;2023-04-24T05:55:24;15.40;99.90
28608;DHT22;15802;45.654;13.804;2023-04-24T05:57:52;15.50;99.90
28608;DHT22;15802;45.654;13.804;2023-04-24T06:00:18;15.50;99.90
28608;DHT22;15802;45.654;13.804;2023-04-24T06:02:45;15.50;99.90
28608;DHT22;15802;45.654;13.804;2023-04-24T06:05:11;15.40;99.90
28608;DHT22;15802;45.654;13.804;2023-04-24T06:07:37;15.40;99.90
28608;DHT22;15802;45.654;13.804;2023-04-24T06:10:03;15.40;99.90
28608;DHT22;15802;45.654;13.804;2023-04-24T06:12:29;15.40;99.90
28608;DHT22;15802;45.654;13.804;2023-04-24T06:14:54;15.40;99.90
28608;DHT22;15802;45.654;13.804;2023-04-24T06:17:21;15.40;99.90
28608;DHT22;15802;45.654;13.804;2023-04-24T06:19:48;15.40;99.90
28608;DHT22;15802;45.654;13.804;2023-04-24T06:22:16;15.40;99.90
28608;DHT22;15802;45.654;13.804;2023-04-24T06:24:42;15.40;99.90
28608;DHT22;15802;45.654;13.804;2023-04-24T06:27:07;15.40;99.90
28608;DHT22;15802;45.654;13.804;2023-04-24T06:29:33;15.40;99.90
28608;DHT22;15802;45.654;13.804;2023-04-24T06:31:59;15.30;99.90
28608;DHT22;15802;45.654;13.804;2023-04-24T06:34:25;15.30;99.90
28608;DHT22;15802;45.654;13.804;2023-04-24T06:36:51;15.30;99.90
28608;DHT22;15802;45.654;13.804;2023-04-24T06:39:16;15.30;99.90
28608;DHT22;15802;45.654;13.804;2023-04-24T06:41:42;15.20;99.90
28608;DHT22;15802;45.654;13.804;2023-04-24T06:44:08;15.20;99.90
28608;DHT22;15802;45.654;13.804;2023-04-24T06:46:34;15.20;99.90
28608;DHT22;15802;45.654;13.804;2023-04-24T06:49:00;15.00;99.90
28608;DHT22;15802;45.654;13.804;2023-04-24T06:51:26;14.90;99.90
28608;DHT22;15802;45.654;13.804;2023-04-24T06:53:53;14.90;99.90
28608;DHT22;15802;45.654;13.804;2023-04-24T06:56:19;14.70;99.90
28608;DHT22;15802;45.654;13.804;2023-04-24T06:58:45;14.60;99.90
28608;DHT22;15802;45.654;13.804;2023-04-24T07:01:11;14.60;99.90
28608;DHT22;15802;45.654;13.804;2023-04-24T07:03:37;14.60;99.90
28608;DHT22;15802;45.654;13.804;2023-04-24T07:06:03;14.50;99.90
28608;DHT22;15802;45.654;13.804;2023-04-24T07:08:29;14.60;99.90
28608;DHT22;15802;45.654;13.804;2023-04-24T07:10:56;14.50;99.90
28608;DHT22;15802;45.654;13.804;2023-04-24T07:13:22;14.60;99.90
28608;DHT22;15802;45.654;13.804;2023-04-24T07:15:47;14.60;99.90
28608;DHT22;15802;45.654;13.804;2023-04-24T07:18:20;14.60;99.90
28608;DHT22;15802;45.654;13.804;2023-04-24T07:20:49;14.60;99.90
28608;DHT22;15802;45.654;13.804;2023-04-24T07:23:15;14.60;99.90
28608;DHT22;15802;45.654;13.804;2023-04-24T07:25:41;14.60;99.90
28608;DHT22;15802;45.654;13.804;2023-04-24T07:28:07;14.70;99.90
28608;DHT22;15802;45.654;13.804;2023-04-24T07:30:33;14.80;99.90
28608;DHT22;15802;45.654;13.804;2023-04-24T07:32:58;14.80;99.90
28608;DHT22;15802;45.654;13.804;2023-04-24T07:35:25;14.90;99.90
28608;DHT22;15802;45.654;13.804;2023-04-24T07:37:51;14.90;99.90
28608;DHT22;15802;45.654;13.804;2023-04-24T07:40:17;14.90;99.90
28608;DHT22;15802;45.654;13.804;2023-04-24T07:42:42;14.80;99.90
28608;DHT22;15802;45.654;13.804;2023-04-24T07:45:12;14.80;99.90
28608;DHT22;15802;45.654;13.804;2023-04-24T07:47:38;14.70;99.90
28608;DHT22;15802;45.654;13.804;2023-04-24T07:50:06;14.60;99.90
28608;DHT22;15802;45.654;13.804;2023-04-24T07:52:31;14.60;99.90
28608;DHT22;15802;45.654;13.804;2023-04-24T07:54:57;14.60;99.90
28608;DHT22;15802;45.654;13.804;2023-04-24T07:57:24;14.50;99.90
28608;DHT22;15802;45.654;13.804;2023-04-24T07:59:50;14.50;99.90
28608;DHT22;15802;45.654;13.804;2023-04-24T08:02:16;14.40;99.90
28608;DHT22;15802;45.654;13.804;2023-04-24T08:04:41;14.40;99.90
28608;DHT22;15802;45.654;13.804;2023-04-24T08:07:07;14.40;99.90
28608;DHT22;15802;45.654;13.804;2023-04-24T08:09:33;14.30;99.90
28608;DHT22;15802;45.654;13.804;2023-04-24T08:11:59;14.30;99.90
28608;DHT22;15802;45.654;13.804;2023-04-24T08:14:25;14.20;99.90
28608;DHT22;15802;45.654;13.804;2023-04-24T08:16:53;14.20;99.90
28608;DHT22;15802;45.654;13.804;2023-04-24T08:19:19;14.20;99.90
28608;DHT22;15802;45.654;13.804;2023-04-24T08:21:44;14.10;99.90
28608;DHT22;15802;45.654;13.804;2023-04-24T08:24:10;14.10;99.90
28608;DHT22;15802;45.654;13.804;2023-04-24T08:26:36;14.10;99.90
28608;DHT22;15802;45.654;13.804;2023-04-24T08:29:01;14.10;99.90
28608;DHT22;15802;45.654;13.804;2023-04-24T08:31:27;14.10;99.90
28608;DHT22;15802;45.654;13.804;2023-04-24T08:33:53;14.10;99.90
28608;DHT22;15802;45.654;13.804;2023-04-24T08:36:19;14.20;99.90
28608;DHT22;15802;45.654;13.804;2023-04-24T08:38:44;14.20;99.90
28608;DHT22;15802;45.654;13.804;2023-04-24T08:41:12;14.20;99.90
28608;DHT22;15802;45.654;13.804;2023-04-24T08:43:39;14.10;99.90
28608;DHT22;15802;45.654;13.804;2023-04-24T08:46:05;14.20;99.90
28608;DHT22;15802;45.654;13.804;2023-04-24T08:48:31;14.30;99.90
28608;DHT22;15802;45.654;13.804;2023-04-24T08:50:57;14.30;99.90
28608;DHT22;15802;45.654;13.804;2023-04-24T08:53:24;14.30;99.90
28608;DHT22;15802;45.654;13.804;2023-04-24T08:55:50;14.30;99.90
28608;DHT22;15802;45.654;13.804;2023-04-24T08:58:17;14.20;99.90
28608;DHT22;15802;45.654;13.804;2023-04-24T09:00:43;14.20;99.90
28608;DHT22;15802;45.654;13.804;2023-04-24T09:03:13;14.10;99.90
28608;DHT22;15802;45.654;13.804;2023-04-24T09:05:44;14.10;99.90
28608;DHT22;15802;45.654;13.804;2023-04-24T09:08:11;14.10;99.90
28608;DHT22;15802;45.654;13.804;2023-04-24T09:10:39;14.00;99.90
28608;DHT22;15802;45.654;13.804;2023-04-24T09:13:05;14.00;99.90
28608;DHT22;15802;45.654;13.804;2023-04-24T09:15:31;13.90;99.90
28608;DHT22;15802;45.654;13.804;2023-04-24T09:17:57;13.90;99.90
28608;DHT22;15802;45.654;13.804;2023-04-24T09:20:22;13.90;99.90
28608;DHT22;15802;45.654;13.804;2023-04-24T09:22:48;13.90;99.90
28608;DHT22;15802;45.654;13.804;2023-04-24T09:25:18;13.80;99.90
28608;DHT22;15802;45.654;13.804;2023-04-24T09:27:45;13.80;99.90
28608;DHT22;15802;45.654;13.804;2023-04-24T09:30:11;13.70;99.90
28608;DHT22;15802;45.654;13.804;2023-04-24T09:35:10;13.60;99.90
28608;DHT22;15802;45.654;13.804;2023-04-24T09:37:37;13.60;99.90
28608;DHT22;15802;45.654;13.804;2023-04-24T09:40:20;13.60;99.90
28608;DHT22;15802;45.654;13.804;2023-04-24T09:42:54;13.60;99.90
28608;DHT22;15802;45.654;13.804;2023-04-24T09:45:20;13.60;99.90
28608;DHT22;15802;45.654;13.804;2023-04-24T09:47:46;13.60;99.90
28608;DHT22;15802;45.654;13.804;2023-04-24T09:50:16;13.60;99.90
28608;DHT22;15802;45.654;13.804;2023-04-24T09:52:45;13.70;99.90
28608;DHT22;15802;45.654;13.804;2023-04-24T09:55:12;13.90;99.90
28608;DHT22;15802;45.654;13.804;2023-04-24T09:57:55;14.00;99.90
28608;DHT22;15802;45.654;13.804;2023-04-24T10:00:22;14.10;99.90
28608;DHT22;15802;45.654;13.804;2023-04-24T10:02:50;14.20;99.90
28608;DHT22;15802;45.654;13.804;2023-04-24T10:05:18;14.20;99.90
28608;DHT22;15802;45.654;13.804;2023-04-24T10:07:44;14.30;99.90
28608;DHT22;15802;45.654;13.804;2023-04-24T10:10:10;14.20;99.90
28608;DHT22;15802;45.654;13.804;2023-04-24T10:12:36;14.30;99.90
28608;DHT22;15802;45.654;13.804;2023-04-24T10:15:02;14.30;99.90
28608;DHT22;15802;45.654;13.804;2023-04-24T10:17:28;14.30;99.90
28608;DHT22;15802;45.654;13.804;2023-04-24T10:19:54;14.30;99.90
28608;DHT22;15802;45.654;13.804;2023-04-24T10:22:20;14.30;99.90
28608;DHT22;15802;45.654;13.804;2023-04-24T10:24:46;14.30;99.90
28608;DHT22;15802;45.654;13.804;2023-04-24T10:27:12;14.30;99.90
28608;DHT22;15802;45.654;13.804;2023-04-24T10:29:40;14.30;99.90
28608;DHT22;15802;45.654;13.804;2023-04-24T10:32:07;14.40;99.90
28608;DHT22;15802;45.654;13.804;2023-04-24T10:34:32;14.50;99.90
28608;DHT22;15802;45.654;13.804;2023-04-24T10:36:58;14.60;99.90
28608;DHT22;15802;45.654;13.804;2023-04-24T10:39:24;14.70;99.90
28608;DHT22;15802;45.654;13.804;2023-04-24T10:41:50;14.70;99.90
28608;DHT22;15802;45.654;13.804;2023-04-24T10:44:16;14.70;99.90
28608;DHT22;15802;45.654;13.804;2023-04-24T10:46:43;14.80;99.90
28608;DHT22;15802;45.654;13.804;2023-04-24T10:49:09;14.80;99.90
28608;DHT22;15802;45.654;13.804;2023-04-24T10:51:51;14.80;99.90
28608;DHT22;15802;45.654;13.804;2023-04-24T10:54:34;14.80;99.90
28608;DHT22;15802;45.654;13.804;2023-04-24T10:59:48;14.70;99.90
28608;DHT22;15802;45.654;13.804;2023-04-24T11:02:14;14.70;99.90
28608;DHT22;15802;45.654;13.804;2023-04-24T11:04:41;14.60;99.90
28608;DHT22;15802;45.654;13.804;2023-04-24T11:07:09;14.60;99.90
28608;DHT22;15802;45.654;13.804;2023-04-24T11:09:35;14.50;99.90
28608;DHT22;15802;45.654;13.804;2023-04-24T11:12:04;14.50;99.90
28608;DHT22;15802;45.654;13.804;2023-04-24T11:14:59;14.50;99.90
28608;DHT22;15802;45.654;13.804;2023-04-24T11:17:34;14.40;99.90
28608;DHT22;15802;45.654;13.804;2023-04-24T11:20:07;14.40;99.90
28608;DHT22;15802;45.654;13.804;2023-04-24T11:22:35;14.30;99.90
28608;DHT22;15802;45.654;13.804;2023-04-24T11:25:02;14.40;99.90
28608;DHT22;15802;45.654;13.804;2023-04-24T11:27:29;14.40;99.90
28608;DHT22;15802;45.654;13.804;2023-04-24T11:30:00;14.50;99.90
28608;DHT22;15802;45.654;13.804;2023-04-24T11:32:28;14.60;99.90
28608;DHT22;15802;45.654;13.804;2023-04-24T11:34:55;14.70;99.90
28608;DHT22;15802;45.654;13.804;2023-04-24T11:37:22;14.70;99.90
28608;DHT22;15802;45.654;13.804;2023-04-24T11:39:50;14.60;99.90
28608;DHT22;15802;45.654;13.804;2023-04-24T11:42:19;14.60;99.90
28608;DHT22;15802;45.654;13.804;2023-04-24T11:47:57;14.60;99.90
28608;DHT22;15802;45.654;13.804;2023-04-24T11:50:24;14.50;99.90
28608;DHT22;15802;45.654;13.804;2023-04-24T11:52:52;14.40;99.90
28608;DHT22;15802;45.654;13.804;2023-04-24T11:55:23;14.30;99.90
28608;DHT22;15802;45.654;13.804;2023-04-24T11:57:52;14.30;99.90
28608;DHT22;15802;45.654;13.804;2023-04-24T12:00:19;14.20;99.90
28608;DHT22;15802;45.654;13.804;2023-04-24T12:02:45;14.20;99.90
28608;DHT22;15802;45.654;13.804;2023-04-24T12:05:29;14.20;99.90
28608;DHT22;15802;45.654;13.804;2023-04-24T12:07:56;14.20;99.90
28608;DHT22;15802;45.654;13.804;2023-04-24T12:10:24;14.20;99.90
28608;DHT22;15802;45.654;13.804;2023-04-24T12:12:51;14.10;99.90
28608;DHT22;15802;45.654;13.804;2023-04-24T12:15:19;14.10;99.90
28608;DHT22;15802;45.654;13.804;2023-04-24T12:17:50;14.00;99.90
28608;DHT22;15802;45.654;13.804;2023-04-24T12:20:16;14.00;99.90
28608;DHT22;15802;45.654;13.804;2023-04-24T12:22:50;13.90;99.90
28608;DHT22;15802;45.654;13.804;2023-04-24T12:27:46;14.00;99.90
28608;DHT22;15802;45.654;13.804;2023-04-24T12:30:12;14.00;99.90
28608;DHT22;15802;45.654;13.804;2023-04-24T12:33:12;13.90;99.90
28608;DHT22;15802;45.654;13.804;2023-04-24T12:35:32;14.00;99.90
28608;DHT22;15802;45.654;13.804;2023-04-24T12:38:15;14.00;99.90
28608;DHT22;15802;45.654;13.804;2023-04-24T12:40:44;14.00;99.90
28608;DHT22;15802;45.654;13.804;2023-04-24T12:43:17;13.90;99.90
28608;DHT22;15802;45.654;13.804;2023-04-24T12:45:47;13.90;99.90
28608;DHT22;15802;45.654;13.804;2023-04-24T12:48:15;13.90;99.90
28608;DHT22;15802;45.654;13.804;2023-04-24T12:50:40;13.90;99.90
28608;DHT22;15802;45.654;13.804;2023-04-24T12:53:07;13.80;99.90
28608;DHT22;15802;45.654;13.804;2023-04-24T12:55:34;13.70;99.90
28608;DHT22;15802;45.654;13.804;2023-04-24T12:57:59;13.50;99.90
28608;DHT22;15802;45.654;13.804;2023-04-24T13:00:25;13.40;99.90
28608;DHT22;15802;45.654;13.804;2023-04-24T13:02:51;13.30;99.90
28608;DHT22;15802;45.654;13.804;2023-04-24T13:05:17;13.30;99.90
28608;DHT22;15802;45.654;13.804;2023-04-24T13:07:45;13.20;99.90
28608;DHT22;15802;45.654;13.804;2023-04-24T13:10:11;13.10;99.90
28608;DHT22;15802;45.654;13.804;2023-04-24T13:12:41;13.10;99.90
28608;DHT22;15802;45.654;13.804;2023-04-24T13:15:10;13.10;99.90
28608;DHT22;15802;45.654;13.804;2023-04-24T13:17:36;13.10;99.90
28608;DHT22;15802;45.654;13.804;2023-04-24T13:20:04;13.00;99.90
28608;DHT22;15802;45.654;13.804;2023-04-24T13:22:32;13.00;99.90
28608;DHT22;15802;45.654;13.804;2023-04-24T13:24:58;13.00;99.90
28608;DHT22;15802;45.654;13.804;2023-04-24T13:27:23;13.00;99.90
28608;DHT22;15802;45.654;13.804;2023-04-24T13:29:49;13.00;99.90
28608;DHT22;15802;45.654;13.804;2023-04-24T13:32:22;13.00;99.90
28608;DHT22;15802;45.654;13.804;2023-04-24T13:34:56;13.00;99.90
28608;DHT22;15802;45.654;13.804;2023-04-24T13:37:23;13.00;99.90
28608;DHT22;15802;45.654;13.804;2023-04-24T13:39:48;13.00;99.90
28608;DHT22;15802;45.654;13.804;2023-04-24T13:42:14;13.00;99.90
28608;DHT22;15802;45.654;13.804;2023-04-24T13:44:40;12.90;99.90
28608;DHT22;15802;45.654;13.804;2023-04-24T13:47:05;12.90;99.90
28608;DHT22;15802;45.654;13.804;2023-04-24T13:49:31;13.00;99.90
28608;DHT22;15802;45.654;13.804;2023-04-24T13:51:59;13.00;99.90
28608;DHT22;15802;45.654;13.804;2023-04-24T13:54:25;13.00;99.90
28608;DHT22;15802;45.654;13.804;2023-04-24T13:56:51;13.00;99.90
28608;DHT22;15802;45.654;13.804;2023-04-24T13:59:17;13.00;99.90
28608;DHT22;15802;45.654;13.804;2023-04-24T14:01:44;13.10;99.90
28608;DHT22;15802;45.654;13.804;2023-04-24T14:04:10;13.10;99.90
28608;DHT22;15802;45.654;13.804;2023-04-24T14:06:36;13.20;99.90
28608;DHT22;15802;45.654;13.804;2023-04-24T14:09:02;13.30;99.90
28608;DHT22;15802;45.654;13.804;2023-04-24T14:11:27;13.40;99.90
28608;DHT22;15802;45.654;13.804;2023-04-24T14:13:54;13.50;99.90
28608;DHT22;15802;45.654;13.804;2023-04-24T14:16:21;13.60;99.90
28608;DHT22;15802;45.654;13.804;2023-04-24T14:18:47;13.70;99.90
28608;DHT22;15802;45.654;13.804;2023-04-24T14:21:13;13.70;99.90
28608;DHT22;15802;45.654;13.804;2023-04-24T14:23:38;13.70;99.90
28608;DHT22;15802;45.654;13.804;2023-04-24T14:26:06;13.70;99.90
28608;DHT22;15802;45.654;13.804;2023-04-24T14:28:32;13.80;99.90
28608;DHT22;15802;45.654;13.804;2023-04-24T14:31:00;13.80;99.90
28608;DHT22;15802;45.654;13.804;2023-04-24T14:33:26;13.70;99.90
28608;DHT22;15802;45.654;13.804;2023-04-24T14:35:51;13.70;99.90
28608;DHT22;15802;45.654;13.804;2023-04-24T14:38:17;13.70;99.90
28608;DHT22;15802;45.654;13.804;2023-04-24T14:40:43;13.70;99.90
28608;DHT22;15802;45.654;13.804;2023-04-24T14:43:09;13.70;99.90
28608;DHT22;15802;45.654;13.804;2023-04-24T14:45:36;13.70;99.90
28608;DHT22;15802;45.654;13.804;2023-04-24T14:48:02;13.60;99.90
28608;DHT22;15802;45.654;13.804;2023-04-24T14:50:28;13.70;99.90
28608;DHT22;15802;45.654;13.804;2023-04-24T14:52:54;13.60;99.90
28608;DHT22;15802;45.654;13.804;2023-04-24T14:55:20;13.60;99.90
28608;DHT22;15802;45.654;13.804;2023-04-24T14:57:46;13.60;99.90
28608;DHT22;15802;45.654;13.804;2023-04-24T15:00:12;13.60;99.90
28608;DHT22;15802;45.654;13.804;2023-04-24T15:02:38;13.60;99.90
28608;DHT22;15802;45.654;13.804;2023-04-24T15:05:07;13.60;99.90
28608;DHT22;15802;45.654;13.804;2023-04-24T15:07:33;13.60;99.90
28608;DHT22;15802;45.654;13.804;2023-04-24T15:10:01;13.60;99.90
28608;DHT22;15802;45.654;13.804;2023-04-24T15:12:26;13.60;99.90
28608;DHT22;15802;45.654;13.804;2023-04-24T15:14:54;13.60;99.90
28608;DHT22;15802;45.654;13.804;2023-04-24T15:17:19;13.70;99.90
28608;DHT22;15802;45.654;13.804;2023-04-24T15:19:45;13.70;99.90
28608;DHT22;15802;45.654;13.804;2023-04-24T15:22:11;13.70;99.90
28608;DHT22;15802;45.654;13.804;2023-04-24T15:24:37;13.70;99.90